Terminal Aerodrome Forecast
Issued by NWS

Home | Current Version | Previous Version | Graphics & Text | Print | Product List | Glossary On
Versions: 1 2 3 4 5 6 7 8 9 10 11 12 13 14 15 16 17 18 19
000
FTUS43 KGRB 300500
TAFCWA
TAF
KCWA 300520Z 3006/3106 VRB03KT P6SM SCT025 OVC140
     FM301400 27005KT P6SM SCT025 OVC100
     FM301900 29008KT P6SM VCSH BKN025 OVC050
     FM310200 31012G20KT P6SM VCSH BKN025 OVC050 PROB30 3103/3106
      6SM -SHSN
      AMD LTD TO CLD VIS AND WIND TIL 301200=

USA.gov is the U.S. government's official web portal to all federal, state and local government web resources and services.